createdAt,value
2022-08-29T00:02:27.447Z,2.27
2022-08-29T00:04:55.785Z,1.77
2022-08-29T00:07:24.074Z,2.00
2022-08-29T00:09:52.356Z,2.20
2022-08-29T00:12:20.656Z,2.03
2022-08-29T00:14:50.225Z,2.00
2022-08-29T00:17:18.435Z,2.20
2022-08-29T00:19:46.676Z,2.43
2022-08-29T00:22:14.861Z,2.10
2022-08-29T00:24:43.132Z,2.73
2022-08-29T00:27:11.433Z,1.67
2022-08-29T00:29:39.677Z,2.10
2022-08-29T00:32:09.425Z,1.90
2022-08-29T00:34:37.862Z,2.27
2022-08-29T00:37:06.139Z,2.00
2022-08-29T00:39:34.346Z,2.00
2022-08-29T00:42:03.028Z,2.50
2022-08-29T00:44:31.281Z,2.20
2022-08-29T00:47:02.239Z,2.10
2022-08-29T00:49:34.066Z,2.43
2022-08-29T00:52:05.067Z,1.90
2022-08-29T00:54:33.483Z,2.43
2022-08-29T00:57:01.909Z,2.20
2022-08-29T00:59:32.817Z,2.07
2022-08-29T01:02:01.488Z,2.23
2022-08-29T01:04:30.022Z,2.30
2022-08-29T01:06:59.596Z,2.27
2022-08-29T01:09:28.324Z,2.10
2022-08-29T01:12:14.219Z,2.00
2022-08-29T01:14:45.377Z,2.17
2022-08-29T01:17:13.652Z,2.10
2022-08-29T01:19:46.861Z,1.90
2022-08-29T01:22:20.665Z,2.43
2022-08-29T01:24:51.516Z,2.20
2022-08-29T01:27:21.328Z,2.23
2022-08-29T01:29:49.696Z,2.33
2022-08-29T01:32:18.168Z,2.27
2022-08-29T01:34:46.469Z,2.60
2022-08-29T01:37:15.949Z,2.07
2022-08-29T01:39:45.188Z,2.40
2022-08-29T01:42:16.211Z,2.63
2022-08-29T01:44:49.599Z,2.30
2022-08-29T01:47:17.920Z,2.40
2022-08-29T01:49:47.151Z,2.20
2022-08-29T01:52:15.526Z,2.67
2022-08-29T01:54:44.571Z,2.20
2022-08-29T01:57:13.402Z,2.27
2022-08-29T01:59:43.736Z,1.90
2022-08-29T02:02:16.601Z,2.00
2022-08-29T02:04:46.036Z,2.17
2022-08-29T02:07:15.305Z,2.10
2022-08-29T02:09:45.836Z,2.10
2022-08-29T02:12:14.724Z,2.30
2022-08-29T02:14:44.382Z,2.10
2022-08-29T02:17:12.652Z,2.30
2022-08-29T02:19:41.634Z,2.10
2022-08-29T02:22:10.209Z,2.20
2022-08-29T02:24:38.428Z,2.80
2022-08-29T02:27:06.955Z,2.53
2022-08-29T02:29:38.634Z,2.90
2022-08-29T02:32:11.776Z,2.10
2022-08-29T02:34:43.915Z,2.20
2022-08-29T02:37:13.561Z,2.27
2022-08-29T02:39:41.806Z,2.20
2022-08-29T02:42:10.009Z,2.50
2022-08-29T02:44:38.277Z,2.00
2022-08-29T02:47:08.976Z,2.10
2022-08-29T02:49:39.502Z,2.10
2022-08-29T02:52:08.616Z,2.50
2022-08-29T02:54:37.034Z,2.10
2022-08-29T02:57:05.413Z,2.67
2022-08-29T02:59:33.648Z,2.13
2022-08-29T03:02:01.935Z,2.10
2022-08-29T03:04:30.336Z,2.10
2022-08-29T03:06:59.951Z,2.47
2022-08-29T03:09:28.211Z,2.33
2022-08-29T03:11:56.500Z,2.37
2022-08-29T03:14:25.007Z,2.00
2022-08-29T03:16:53.252Z,2.00
2022-08-29T03:19:22.812Z,2.60
2022-08-29T03:21:51.203Z,2.33
2022-08-29T03:24:26.193Z,2.23
2022-08-29T03:26:56.844Z,2.37
2022-08-29T03:29:26.043Z,2.23
2022-08-29T03:31:58.182Z,2.33
2022-08-29T03:34:26.569Z,2.17
2022-08-29T03:36:54.777Z,2.30
2022-08-29T03:39:24.369Z,2.30
2022-08-29T03:41:53.208Z,2.93
2022-08-29T03:44:21.468Z,2.70
2022-08-29T03:46:49.771Z,2.47
2022-08-29T03:49:18.052Z,2.77
2022-08-29T03:51:46.240Z,2.60
2022-08-29T03:54:14.468Z,2.33
2022-08-29T03:56:44.050Z,2.60
2022-08-29T03:59:12.306Z,2.80
2022-08-29T04:01:40.585Z,2.23
2022-08-29T04:04:08.861Z,2.13
2022-08-29T04:06:37.049Z,2.23
2022-08-29T04:09:05.427Z,2.20
2022-08-29T04:11:33.671Z,2.53
2022-08-29T04:14:03.210Z,2.30
2022-08-29T04:16:31.556Z,2.30
2022-08-29T04:19:00.209Z,2.47
2022-08-29T04:21:28.480Z,2.80
2022-08-29T04:23:56.683Z,2.17
2022-08-29T04:26:36.898Z,2.13
2022-08-29T04:29:07.165Z,2.10
2022-08-29T04:31:36.410Z,2.33
2022-08-29T04:34:04.991Z,2.30
2022-08-29T04:36:33.217Z,2.67
2022-08-29T04:39:01.458Z,2.50
2022-08-29T04:41:31.075Z,2.17
2022-08-29T04:44:01.265Z,2.90
2022-08-29T04:46:30.946Z,2.60
2022-08-29T04:49:03.766Z,2.60
2022-08-29T04:51:34.165Z,2.50
2022-08-29T04:54:02.433Z,2.23
2022-08-29T04:56:30.697Z,2.70
2022-08-29T04:58:58.937Z,2.07
2022-08-29T05:01:27.548Z,2.40
2022-08-29T05:03:57.987Z,2.37
2022-08-29T05:06:26.524Z,2.63
2022-08-29T05:08:59.138Z,2.30
2022-08-29T05:11:28.852Z,2.27
2022-08-29T05:13:57.289Z,2.10
2022-08-29T05:16:25.544Z,2.67
2022-08-29T05:18:53.727Z,2.67
2022-08-29T05:21:27.225Z,1.93
2022-08-29T05:23:56.425Z,2.23
2022-08-29T05:26:25.379Z,2.60
2022-08-29T05:28:53.645Z,2.60
2022-08-29T05:31:22.504Z,2.30
2022-08-29T05:33:51.497Z,2.90
2022-08-29T05:36:20.142Z,2.50
2022-08-29T05:38:49.776Z,2.37
2022-08-29T05:41:18.997Z,2.73
2022-08-29T05:43:47.321Z,2.40
2022-08-29T05:46:15.678Z,2.80
2022-08-29T05:48:48.573Z,2.67
2022-08-29T05:51:17.509Z,2.47
2022-08-29T05:53:46.094Z,2.70
2022-08-29T05:56:21.721Z,2.73
2022-08-29T05:58:50.025Z,2.57
2022-08-29T06:01:25.826Z,2.80
2022-08-29T06:03:54.871Z,2.70
2022-08-29T06:06:25.700Z,2.67
2022-08-29T06:08:54.416Z,2.93
2022-08-29T06:11:25.233Z,2.63
2022-08-29T06:13:53.524Z,2.97
2022-08-29T06:16:22.552Z,2.90
2022-08-29T06:18:50.913Z,2.60
2022-08-29T06:21:19.461Z,2.43
2022-08-29T06:23:47.720Z,3.47
2022-08-29T06:26:16.282Z,2.60
2022-08-29T06:28:46.900Z,2.40
2022-08-29T06:31:16.283Z,2.83
2022-08-29T06:33:44.520Z,2.93
2022-08-29T06:36:13.113Z,2.53
2022-08-29T06:38:41.381Z,2.70
2022-08-29T06:41:10.670Z,2.67
2022-08-29T06:43:39.381Z,2.73
2022-08-29T06:46:09.396Z,2.70
2022-08-29T06:48:37.656Z,2.63
2022-08-29T06:51:05.934Z,2.43
2022-08-29T06:53:37.442Z,2.40
2022-08-29T06:56:06.768Z,2.60
2022-08-29T06:58:39.641Z,2.33
2022-08-29T07:01:09.994Z,2.80
2022-08-29T07:03:38.342Z,2.70
2022-08-29T07:06:06.732Z,2.40
2022-08-29T07:08:35.489Z,3.17
2022-08-29T07:11:04.308Z,2.90
2022-08-29T07:13:34.476Z,2.97
2022-08-29T07:16:02.871Z,2.70
2022-08-29T07:18:32.495Z,2.90
2022-08-29T07:21:00.731Z,2.70
2022-08-29T07:23:28.965Z,2.83
2022-08-29T07:25:57.208Z,2.70
2022-08-29T07:28:25.488Z,2.80
2022-08-29T07:30:53.948Z,2.70
2022-08-29T07:33:22.248Z,2.73
2022-08-29T07:35:54.296Z,2.37
2022-08-29T07:38:22.561Z,2.63
2022-08-29T07:40:50.835Z,2.43
2022-08-29T07:43:20.916Z,2.40
2022-08-29T07:45:50.526Z,2.60
2022-08-29T07:48:22.472Z,3.17
2022-08-29T07:50:52.713Z,2.43
2022-08-29T07:53:21.083Z,2.57
2022-08-29T07:55:49.304Z,2.40
2022-08-29T07:58:17.540Z,2.40
2022-08-29T08:00:45.760Z,2.53
2022-08-29T08:03:16.018Z,3.03
2022-08-29T08:05:44.401Z,2.70
2022-08-29T08:08:15.600Z,2.63
2022-08-29T08:10:43.992Z,2.83
2022-08-29T08:13:12.259Z,2.83
2022-08-29T08:15:40.696Z,2.60
2022-08-29T08:18:09.160Z,3.63
2022-08-29T08:20:37.669Z,4.10
2022-08-29T08:23:09.040Z,4.10
2022-08-29T08:25:38.797Z,3.13
2022-08-29T08:28:07.071Z,3.40
2022-08-29T08:30:35.897Z,3.70
2022-08-29T08:33:04.461Z,4.03
2022-08-29T08:35:35.652Z,4.30
2022-08-29T08:38:03.901Z,3.97
2022-08-29T08:40:33.015Z,2.77
2022-08-29T08:43:03.689Z,3.93
2022-08-29T08:45:35.154Z,3.40
2022-08-29T08:48:05.984Z,2.87
2022-08-29T08:50:39.899Z,2.90
2022-08-29T08:53:11.753Z,3.13
2022-08-29T08:55:42.679Z,3.87
2022-08-29T08:58:15.414Z,3.30
2022-08-29T09:00:45.686Z,3.33
2022-08-29T09:03:30.120Z,4.30
2022-08-29T09:06:05.461Z,3.57
2022-08-29T09:08:41.375Z,3.73
2022-08-29T09:11:13.750Z,3.10
2022-08-29T09:13:47.920Z,3.50
2022-08-29T09:16:24.976Z,4.00
2022-08-29T09:18:54.039Z,3.87
2022-08-29T09:24:15.341Z,3.90
2022-08-29T09:26:43.599Z,3.83
2022-08-29T09:29:14.452Z,3.50
2022-08-29T09:31:43.417Z,3.40
2022-08-29T09:34:15.410Z,3.50
2022-08-29T09:36:47.412Z,3.60
2022-08-29T09:39:21.119Z,3.80
2022-08-29T09:41:50.973Z,2.80
2022-08-29T09:44:23.220Z,3.13
2022-08-29T09:47:05.523Z,3.43
2022-08-29T09:49:34.277Z,3.23
2022-08-29T09:52:09.708Z,3.23
2022-08-29T09:54:38.262Z,2.80
2022-08-29T09:57:10.740Z,2.90
2022-08-29T09:59:44.676Z,2.70
2022-08-29T10:02:22.372Z,2.57
2022-08-29T10:04:52.493Z,3.10
2022-08-29T10:07:21.768Z,2.87
2022-08-29T10:10:01.606Z,2.50
2022-08-29T10:12:35.694Z,2.67
2022-08-29T10:15:08.520Z,2.87
2022-08-29T10:17:57.536Z,2.80
2022-08-29T10:20:28.386Z,2.90
2022-08-29T10:22:59.383Z,2.80
2022-08-29T10:25:35.758Z,2.73
2022-08-29T10:28:07.149Z,2.83
2022-08-29T10:30:41.063Z,2.50
2022-08-29T10:33:14.664Z,2.97
2022-08-29T10:35:54.223Z,2.50
2022-08-29T10:38:26.332Z,2.27
2022-08-29T10:40:58.491Z,2.50
2022-08-29T10:43:35.496Z,2.60
2022-08-29T10:46:28.322Z,3.00
2022-08-29T10:49:00.129Z,2.57
2022-08-29T10:51:33.713Z,2.50
2022-08-29T10:54:05.234Z,2.40
2022-08-29T10:56:37.160Z,2.50
2022-08-29T10:59:08.527Z,3.10
2022-08-29T11:01:40.923Z,2.30
2022-08-29T11:04:17.519Z,2.40
2022-08-29T11:06:50.399Z,2.53
2022-08-29T11:09:22.592Z,2.33
2022-08-29T11:12:05.407Z,2.90
2022-08-29T11:14:36.769Z,2.40
2022-08-29T11:17:07.466Z,2.30
2022-08-29T11:19:41.767Z,2.70
2022-08-29T11:22:13.470Z,2.97
2022-08-29T11:24:46.982Z,2.70
2022-08-29T11:27:20.488Z,2.80
2022-08-29T11:29:53.974Z,2.60
2022-08-29T11:32:26.411Z,2.47
2022-08-29T11:35:02.567Z,2.17
2022-08-29T11:37:40.565Z,2.20
2022-08-29T11:40:16.660Z,2.30
2022-08-29T11:42:50.442Z,2.67
2022-08-29T11:45:25.683Z,2.67
2022-08-29T11:48:19.648Z,2.90
2022-08-29T11:50:49.145Z,2.30
2022-08-29T11:53:33.577Z,2.73
2022-08-29T11:56:20.310Z,2.53
2022-08-29T11:58:50.665Z,2.27
2022-08-29T12:01:33.737Z,2.30
2022-08-29T12:04:04.886Z,2.10
2022-08-29T12:06:48.038Z,2.67
2022-08-29T12:09:26.116Z,2.50
2022-08-29T12:12:14.326Z,2.43
2022-08-29T12:14:43.719Z,2.40
2022-08-29T12:17:12.642Z,2.60
2022-08-29T12:19:49.137Z,2.20
2022-08-29T12:22:36.060Z,2.60
2022-08-29T12:25:24.538Z,2.80
2022-08-29T12:28:00.921Z,2.70
2022-08-29T12:30:29.472Z,2.60
2022-08-29T12:33:03.973Z,2.60
2022-08-29T12:35:47.908Z,3.10
2022-08-29T12:38:24.756Z,2.53
2022-08-29T12:40:58.877Z,2.40
2022-08-29T12:43:33.665Z,2.87
2022-08-29T12:46:03.728Z,2.73
2022-08-29T12:48:35.695Z,3.13
2022-08-29T12:51:05.757Z,2.73
2022-08-29T12:53:35.296Z,2.67
2022-08-29T12:56:04.401Z,2.23
2022-08-29T12:58:35.167Z,2.63
2022-08-29T13:01:03.568Z,2.20
2022-08-29T13:03:32.034Z,2.30
2022-08-29T13:06:14.996Z,2.57
2022-08-29T13:08:43.383Z,3.30
2022-08-29T13:11:12.760Z,2.83
2022-08-29T13:13:41.467Z,2.60
2022-08-29T13:16:10.571Z,2.37
2022-08-29T13:18:53.939Z,2.57
2022-08-29T13:21:31.641Z,2.47
2022-08-29T13:24:04.701Z,2.50
2022-08-29T13:26:34.702Z,2.33
2022-08-29T13:29:15.590Z,2.23
2022-08-29T13:31:43.929Z,2.33
2022-08-29T13:34:17.868Z,2.30
2022-08-29T13:36:50.177Z,2.63
2022-08-29T13:39:35.089Z,2.63
2022-08-29T13:42:25.420Z,2.60
2022-08-29T13:45:05.661Z,2.60
2022-08-29T13:47:34.916Z,2.53
2022-08-29T13:50:04.349Z,2.50
2022-08-29T13:52:34.004Z,2.13
2022-08-29T13:55:02.585Z,2.80
2022-08-29T13:57:35.141Z,2.20
2022-08-29T14:00:07.017Z,2.27
2022-08-29T14:02:39.288Z,2.50
2022-08-29T14:05:13.205Z,2.07
2022-08-29T14:07:43.762Z,2.70
2022-08-29T14:10:12.888Z,2.37
2022-08-29T14:12:41.169Z,2.80
2022-08-29T14:15:10.998Z,2.27
2022-08-29T14:17:40.593Z,2.40
2022-08-29T14:20:10.499Z,2.30
2022-08-29T14:22:39.182Z,2.47
2022-08-29T14:25:09.711Z,2.43
2022-08-29T14:27:38.212Z,2.77
2022-08-29T14:30:07.272Z,2.50
2022-08-29T14:32:35.620Z,2.40
2022-08-29T14:35:04.427Z,2.23
2022-08-29T14:37:33.813Z,2.60
2022-08-29T14:40:02.127Z,2.30
2022-08-29T14:42:33.483Z,2.50
2022-08-29T14:45:01.718Z,2.50
2022-08-29T14:47:29.969Z,2.47
2022-08-29T14:49:58.218Z,2.97
2022-08-29T14:52:26.473Z,3.10
2022-08-29T14:54:57.599Z,2.63
2022-08-29T14:57:26.156Z,2.80
2022-08-29T14:59:55.764Z,2.50
2022-08-29T15:02:24.082Z,2.47
2022-08-29T15:04:54.507Z,2.83
2022-08-29T15:07:22.787Z,2.90
2022-08-29T15:09:51.168Z,2.93
2022-08-29T15:12:21.521Z,2.70
2022-08-29T15:14:49.785Z,2.50
2022-08-29T15:17:19.395Z,3.10
2022-08-29T15:22:36.109Z,2.57
2022-08-29T15:25:04.477Z,3.03
2022-08-29T15:27:32.837Z,2.37
2022-08-29T15:30:01.036Z,2.90
2022-08-29T15:32:31.026Z,2.80
2022-08-29T15:34:59.289Z,2.63
2022-08-29T15:37:27.675Z,2.17
2022-08-29T15:39:55.981Z,4.60
2022-08-29T15:42:29.351Z,3.17
2022-08-29T15:44:57.753Z,4.60
2022-08-29T15:47:26.153Z,6.70
2022-08-29T15:49:56.093Z,5.90
2022-08-29T15:52:24.328Z,3.10
2022-08-29T15:54:52.697Z,3.17
2022-08-29T15:57:21.467Z,3.60
2022-08-29T15:59:58.367Z,3.10
2022-08-29T16:02:27.400Z,2.23
2022-08-29T16:04:57.710Z,3.00
2022-08-29T16:07:29.345Z,3.13
2022-08-29T16:09:57.717Z,3.10
2022-08-29T16:12:25.934Z,2.70
2022-08-29T16:15:03.707Z,2.73
2022-08-29T16:17:34.798Z,2.90
2022-08-29T16:20:04.763Z,3.00
2022-08-29T16:22:33.912Z,2.70
2022-08-29T16:25:02.339Z,2.80
2022-08-29T16:27:30.601Z,2.37
2022-08-29T16:29:58.844Z,2.60
2022-08-29T16:32:27.101Z,2.73
2022-08-29T16:34:55.327Z,2.70
2022-08-29T16:37:25.129Z,2.57
2022-08-29T16:39:53.415Z,3.03
2022-08-29T16:42:21.651Z,2.50
2022-08-29T16:44:49.910Z,2.50
2022-08-29T16:47:18.968Z,2.60
2022-08-29T16:49:48.183Z,2.47
2022-08-29T16:52:16.416Z,2.70
2022-08-29T16:54:46.036Z,3.10
2022-08-29T16:57:14.251Z,2.67
2022-08-29T16:59:42.480Z,2.53
2022-08-29T17:02:10.744Z,2.90
2022-08-29T17:04:39.402Z,2.90
2022-08-29T17:07:07.635Z,2.77
2022-08-29T17:09:34.928Z,2.70
2022-08-29T17:12:03.748Z,2.97
2022-08-29T17:14:30.988Z,2.57
2022-08-29T17:17:00.520Z,2.40
2022-08-29T17:19:28.958Z,2.53
2022-08-29T17:22:01.554Z,2.47
2022-08-29T17:24:29.963Z,2.67
2022-08-29T17:26:58.261Z,2.40
2022-08-29T17:29:27.809Z,2.33
2022-08-29T17:31:56.106Z,2.70
2022-08-29T17:34:24.507Z,2.43
2022-08-29T17:36:52.841Z,2.53
2022-08-29T17:39:21.525Z,2.50
2022-08-29T17:41:51.204Z,2.90
2022-08-29T17:44:19.916Z,2.30
2022-08-29T17:46:49.552Z,2.33
2022-08-29T17:49:18.028Z,2.67
2022-08-29T17:51:53.706Z,2.80
2022-08-29T17:54:23.189Z,2.77
2022-08-29T17:56:51.947Z,2.57
2022-08-29T17:59:21.376Z,2.40
2022-08-29T18:01:51.123Z,2.70
2022-08-29T18:04:19.404Z,3.23
2022-08-29T18:06:47.932Z,2.83
2022-08-29T18:09:16.469Z,2.97
2022-08-29T18:11:47.598Z,3.40
2022-08-29T18:14:15.823Z,2.90
2022-08-29T18:16:44.299Z,3.10
2022-08-29T18:19:14.564Z,3.50
2022-08-29T18:21:43.699Z,3.30
2022-08-29T18:24:13.863Z,3.20
2022-08-29T18:26:42.559Z,3.60
2022-08-29T18:29:10.832Z,4.03
2022-08-29T18:31:39.157Z,3.43
2022-08-29T18:34:07.441Z,3.00
2022-08-29T18:36:37.871Z,3.53
2022-08-29T18:39:06.484Z,3.47
2022-08-29T18:41:35.219Z,3.30
2022-08-29T18:44:03.629Z,3.27
2022-08-29T18:46:32.393Z,3.00
2022-08-29T18:49:00.619Z,3.93
2022-08-29T18:51:28.861Z,2.93
2022-08-29T18:53:58.424Z,2.97
2022-08-29T18:56:27.831Z,2.70
2022-08-29T18:58:58.642Z,3.63
2022-08-29T19:01:29.453Z,3.20
2022-08-29T19:03:58.726Z,3.43
2022-08-29T19:06:27.242Z,3.23
2022-08-29T19:08:56.205Z,3.60
2022-08-29T19:11:26.928Z,3.10
2022-08-29T19:13:55.153Z,3.20
2022-08-29T19:16:24.258Z,3.13
2022-08-29T19:18:53.146Z,3.73
2022-08-29T19:21:20.542Z,3.10
2022-08-29T19:23:52.153Z,3.17
2022-08-29T19:26:22.888Z,3.27
2022-08-29T19:28:55.408Z,3.10
2022-08-29T19:31:27.543Z,3.20
2022-08-29T19:33:55.967Z,3.03
2022-08-29T19:36:24.760Z,3.17
2022-08-29T19:38:52.971Z,3.70
2022-08-29T19:41:21.205Z,3.00
2022-08-29T19:43:49.479Z,3.80
2022-08-29T19:46:21.594Z,3.50
2022-08-29T19:48:51.336Z,3.00
2022-08-29T19:51:21.446Z,3.03
2022-08-29T19:53:49.958Z,3.30
2022-08-29T19:56:19.054Z,3.90
2022-08-29T19:58:47.576Z,3.30
2022-08-29T20:01:19.206Z,3.50
2022-08-29T20:03:47.495Z,3.37
2022-08-29T20:06:15.767Z,3.03
2022-08-29T20:08:45.452Z,3.77
2022-08-29T20:11:13.730Z,3.30
2022-08-29T20:13:47.616Z,3.30
2022-08-29T20:16:21.951Z,3.70
2022-08-29T20:18:50.456Z,3.57
2022-08-29T20:21:19.297Z,3.60
2022-08-29T20:23:49.423Z,3.50
2022-08-29T20:26:18.853Z,3.67
2022-08-29T20:28:47.313Z,3.87
2022-08-29T20:31:15.566Z,3.70
2022-08-29T20:33:47.325Z,3.63
2022-08-29T20:36:38.557Z,3.60
2022-08-29T20:39:07.682Z,3.20
2022-08-29T20:41:35.982Z,3.50
2022-08-29T20:44:07.458Z,3.20
2022-08-29T20:46:39.412Z,3.53
2022-08-29T20:49:09.082Z,3.77
2022-08-29T20:51:37.503Z,3.87
2022-08-29T20:54:05.787Z,3.27
2022-08-29T20:56:34.198Z,4.10
2022-08-29T20:59:02.489Z,3.60
2022-08-29T21:01:30.955Z,3.83
2022-08-29T21:04:20.765Z,4.17
2022-08-29T21:06:50.793Z,3.33
2022-08-29T21:09:18.985Z,3.57
2022-08-29T21:11:47.227Z,3.07
2022-08-29T21:14:15.496Z,3.47
2022-08-29T21:16:43.745Z,3.50
2022-08-29T21:19:12.637Z,4.27
2022-08-29T21:21:41.804Z,4.67
2022-08-29T21:24:11.850Z,4.17
2022-08-29T21:26:40.631Z,4.33
2022-08-29T21:29:09.328Z,4.20
2022-08-29T21:31:38.336Z,3.90
2022-08-29T21:34:07.346Z,3.93
2022-08-29T21:36:36.865Z,3.67
2022-08-29T21:39:06.016Z,3.40
2022-08-29T21:41:36.213Z,2.87
2022-08-29T21:44:04.872Z,4.00
2022-08-29T21:46:34.065Z,3.67
2022-08-29T21:49:05.372Z,3.47
2022-08-29T21:51:34.499Z,3.67
2022-08-29T21:54:02.773Z,3.23
2022-08-29T21:56:32.623Z,3.47
2022-08-29T21:59:02.524Z,3.57
2022-08-29T22:01:32.089Z,3.83
2022-08-29T22:04:00.786Z,3.43
2022-08-29T22:06:29.426Z,3.23
2022-08-29T22:08:59.560Z,3.20
2022-08-29T22:11:37.465Z,3.43
2022-08-29T22:14:08.554Z,3.20
2022-08-29T22:16:36.853Z,3.10
2022-08-29T22:19:06.539Z,3.17
2022-08-29T22:21:35.866Z,3.50
2022-08-29T22:24:04.324Z,2.93
2022-08-29T22:26:32.627Z,3.97
2022-08-29T22:29:01.085Z,3.07
2022-08-29T22:31:31.777Z,3.47
2022-08-29T22:34:00.146Z,3.00
2022-08-29T22:36:28.417Z,3.23
2022-08-29T22:38:57.588Z,3.10
2022-08-29T22:41:26.187Z,3.03
2022-08-29T22:44:25.443Z,3.33
2022-08-29T22:46:46.122Z,3.30
2022-08-29T22:49:14.791Z,3.20
2022-08-29T22:51:43.036Z,3.60
2022-08-29T22:54:28.887Z,3.63
2022-08-29T22:56:57.096Z,2.90
2022-08-29T22:59:25.368Z,3.43
2022-08-29T23:01:55.019Z,3.10
2022-08-29T23:04:23.989Z,3.23
2022-08-29T23:06:52.231Z,3.57
2022-08-29T23:09:20.557Z,3.87
2022-08-29T23:11:49.255Z,3.43
2022-08-29T23:14:20.531Z,3.03
2022-08-29T23:16:49.130Z,2.60
2022-08-29T23:19:18.741Z,3.27
2022-08-29T23:21:46.964Z,3.23
2022-08-29T23:24:15.207Z,3.13
2022-08-29T23:26:43.457Z,3.23
2022-08-29T23:29:11.684Z,2.90
2022-08-29T23:31:39.939Z,4.10
2022-08-29T23:34:08.168Z,3.10
2022-08-29T23:36:37.792Z,3.23
2022-08-29T23:39:06.257Z,3.77
2022-08-29T23:41:34.636Z,3.27
2022-08-29T23:44:03.064Z,3.30
2022-08-29T23:46:31.325Z,3.43
2022-08-29T23:48:59.683Z,3.50
2022-08-29T23:51:27.931Z,3.20
2022-08-29T23:53:57.535Z,3.73
2022-08-29T23:56:26.069Z,3.37
2022-08-29T23:58:55.750Z,3.00
